createdAt,value
2022-08-07T00:00:55.789Z,10.55
2022-08-07T00:02:41.300Z,10.53
2022-08-07T00:02:55.015Z,10.55
2022-08-07T00:03:55.157Z,10.53
2022-08-07T00:04:54.006Z,10.52
2022-08-07T00:05:54.114Z,10.51
2022-08-07T00:06:53.962Z,10.47
2022-08-07T00:07:58.510Z,10.45
2022-08-07T00:08:54.928Z,10.44
2022-08-07T00:10:04.896Z,10.41
2022-08-07T00:10:57.250Z,10.40
2022-08-07T00:11:58.774Z,10.41
2022-08-07T00:12:57.700Z,10.41
2022-08-07T00:13:55.680Z,10.41
2022-08-07T00:14:53.880Z,10.42
2022-08-07T00:15:53.830Z,10.41
2022-08-07T00:16:53.841Z,10.41
2022-08-07T00:17:53.810Z,10.41
2022-08-07T00:18:53.821Z,10.40
2022-08-07T00:20:01.334Z,10.36
2022-08-07T00:20:54.780Z,10.36
2022-08-07T00:21:57.053Z,10.38
2022-08-07T00:22:55.360Z,10.36
2022-08-07T00:23:53.750Z,10.33
2022-08-07T00:24:53.749Z,10.26
2022-08-07T00:26:00.250Z,10.23
2022-08-07T00:27:06.322Z,10.18
2022-08-07T00:27:56.507Z,10.17
2022-08-07T00:28:55.600Z,10.14
2022-08-07T00:29:53.677Z,10.14
2022-08-07T00:30:53.687Z,10.12
2022-08-07T00:31:53.662Z,10.11
2022-08-07T00:32:53.673Z,10.09
2022-08-07T00:33:54.434Z,10.07
2022-08-07T00:34:53.651Z,10.05
2022-08-07T00:35:53.600Z,10.05
2022-08-07T00:36:53.607Z,10.05
2022-08-07T00:37:54.029Z,10.05
2022-08-07T00:38:53.590Z,10.02
2022-08-07T00:39:54.211Z,10.02
2022-08-07T00:40:53.559Z,10.02
2022-08-07T00:42:02.158Z,10.01
2022-08-07T00:42:54.540Z,9.99
2022-08-07T00:44:01.816Z,9.96
2022-08-07T00:44:55.261Z,9.94
2022-08-07T00:45:53.501Z,9.91
2022-08-07T00:46:53.576Z,9.90
2022-08-07T00:48:07.701Z,9.90
2022-08-07T00:48:54.463Z,9.89
2022-08-07T00:50:21.486Z,9.90
2022-08-07T00:50:56.400Z,9.89
2022-08-07T00:51:57.753Z,9.89
2022-08-07T00:52:54.420Z,9.90
2022-08-07T00:53:56.010Z,9.89
2022-08-07T00:54:54.213Z,9.83
2022-08-07T00:56:00.447Z,9.79
2022-08-07T00:56:54.373Z,9.75
2022-08-07T00:57:55.771Z,9.71
2022-08-07T00:58:53.341Z,9.68
2022-08-07T00:59:53.348Z,9.65
2022-08-07T01:00:54.039Z,9.61
2022-08-07T01:01:53.362Z,9.60
2022-08-07T01:02:53.298Z,9.61
2022-08-07T01:03:57.021Z,9.60
2022-08-07T01:04:54.281Z,9.58
2022-08-07T01:05:53.697Z,9.60
2022-08-07T01:06:53.780Z,9.60
2022-08-07T01:07:53.249Z,9.58
2022-08-07T01:08:55.670Z,9.58
2022-08-07T01:10:05.812Z,9.58
2022-08-07T01:10:56.291Z,9.56
2022-08-07T01:12:23.969Z,9.56
2022-08-07T01:12:54.534Z,9.54
2022-08-07T01:13:55.958Z,9.53
2022-08-07T01:14:57.084Z,9.50
2022-08-07T01:16:00.611Z,9.50
2022-08-07T01:16:54.139Z,9.50
2022-08-07T01:17:53.147Z,9.48
2022-08-07T01:18:53.110Z,9.46
2022-08-07T01:19:54.322Z,9.43
2022-08-07T01:20:58.520Z,9.40
2022-08-07T01:21:55.377Z,9.40
2022-08-07T01:23:00.567Z,9.40
2022-08-07T01:23:54.070Z,9.39
2022-08-07T01:24:53.042Z,9.39
2022-08-07T01:25:55.522Z,9.39
2022-08-07T01:26:53.912Z,9.39
2022-08-07T01:27:53.028Z,9.42
2022-08-07T01:28:52.998Z,9.40
2022-08-07T01:29:53.033Z,9.42
2022-08-07T01:30:52.977Z,9.39
2022-08-07T01:31:52.990Z,9.40
2022-08-07T01:32:52.956Z,9.40
2022-08-07T01:33:55.523Z,9.36
2022-08-07T01:34:52.928Z,9.35
2022-08-07T01:35:54.813Z,9.33
2022-08-07T01:36:57.925Z,9.31
2022-08-07T01:37:52.921Z,9.26
2022-08-07T01:38:52.880Z,9.24
2022-08-07T01:39:53.111Z,9.23
2022-08-07T01:40:52.858Z,9.20
2022-08-07T01:42:01.698Z,9.20
2022-08-07T01:42:58.945Z,9.21
2022-08-07T01:43:53.841Z,9.20
2022-08-07T01:44:52.818Z,9.15
2022-08-07T01:45:54.317Z,9.13
2022-08-07T01:46:52.818Z,9.05
2022-08-07T01:48:20.677Z,9.05
2022-08-07T01:48:53.767Z,9.02
2022-08-07T01:49:53.612Z,9.01
2022-08-07T01:50:52.768Z,9.01
2022-08-07T01:52:02.261Z,9.04
2022-08-07T01:52:54.909Z,9.02
2022-08-07T01:54:06.274Z,9.04
2022-08-07T01:54:53.700Z,9.04
2022-08-07T01:55:52.739Z,9.05
2022-08-07T01:56:52.688Z,9.04
2022-08-07T01:58:05.616Z,9.02
2022-08-07T01:58:53.665Z,9.04
2022-08-07T01:59:52.669Z,9.02
2022-08-07T02:00:52.680Z,9.02
2022-08-07T02:01:59.956Z,9.02
2022-08-07T02:03:19.301Z,9.01
2022-08-07T02:03:53.672Z,9.01
2022-08-07T02:04:56.605Z,9.01
2022-08-07T02:05:59.253Z,8.99
2022-08-07T02:06:53.568Z,8.99
2022-08-07T02:07:52.718Z,8.99
2022-08-07T02:08:54.387Z,8.96
2022-08-07T02:09:58.602Z,8.95
2022-08-07T02:10:54.946Z,8.94
2022-08-07T02:12:03.704Z,8.95
2022-08-07T02:12:53.497Z,8.91
2022-08-07T02:13:57.663Z,8.94
2022-08-07T02:14:53.485Z,8.91
2022-08-07T02:15:53.119Z,8.89
2022-08-07T02:16:52.472Z,8.87
2022-08-07T02:17:52.456Z,8.87
2022-08-07T02:18:52.439Z,8.87
2022-08-07T02:20:04.323Z,8.86
2022-08-07T02:20:57.356Z,8.83
2022-08-07T02:21:56.476Z,8.80
2022-08-07T02:22:55.021Z,8.81
2022-08-07T02:23:52.406Z,8.83
2022-08-07T02:24:52.367Z,8.81
2022-08-07T02:26:31.541Z,8.81
2022-08-07T02:26:53.356Z,8.83
2022-08-07T02:27:53.133Z,8.83
2022-08-07T02:28:52.409Z,8.83
2022-08-07T02:29:54.716Z,8.83
2022-08-07T02:30:52.302Z,8.80
2022-08-07T02:31:52.307Z,8.81
2022-08-07T02:33:04.041Z,8.79
2022-08-07T02:34:01.705Z,8.79
2022-08-07T02:34:53.257Z,8.76
2022-08-07T02:36:28.944Z,8.73
2022-08-07T02:36:53.236Z,8.71
2022-08-07T02:37:52.235Z,8.65
2022-08-07T02:38:57.792Z,8.63
2022-08-07T02:40:02.371Z,8.63
2022-08-07T02:40:55.661Z,8.62
2022-08-07T02:41:54.300Z,8.63
2022-08-07T02:42:52.165Z,8.65
2022-08-07T02:43:52.200Z,8.66
2022-08-07T02:44:52.175Z,8.65
2022-08-07T02:45:59.408Z,8.63
2022-08-07T02:46:53.127Z,8.62
2022-08-07T02:47:52.133Z,8.63
2022-08-07T02:48:54.911Z,8.62
2022-08-07T02:49:59.104Z,8.61
2022-08-07T02:50:53.086Z,8.58
2022-08-07T02:51:52.416Z,8.55
2022-08-07T02:52:52.045Z,8.52
2022-08-07T02:53:52.054Z,8.55
2022-08-07T02:54:52.186Z,8.56
2022-08-07T02:56:03.267Z,8.55
2022-08-07T02:56:53.014Z,8.56
2022-08-07T02:57:52.006Z,8.56
2022-08-07T02:58:54.289Z,8.58
2022-08-07T02:59:54.933Z,8.56
2022-08-07T03:00:53.098Z,8.58
2022-08-07T03:01:52.252Z,8.55
2022-08-07T03:02:55.118Z,8.55
2022-08-07T03:03:51.942Z,8.53
2022-08-07T03:04:52.724Z,8.52
2022-08-07T03:05:51.925Z,8.52
2022-08-07T03:06:51.890Z,8.52
2022-08-07T03:08:05.433Z,8.50
2022-08-07T03:08:52.865Z,8.52
2022-08-07T03:09:52.640Z,8.48
2022-08-07T03:10:51.844Z,8.48
2022-08-07T03:11:57.982Z,8.47
2022-08-07T03:12:52.842Z,8.47
2022-08-07T03:13:51.814Z,8.45
2022-08-07T03:14:52.910Z,8.43
2022-08-07T03:15:56.163Z,8.43
2022-08-07T03:16:52.782Z,8.44
2022-08-07T03:17:52.950Z,8.43
2022-08-07T03:18:51.758Z,8.40
2022-08-07T03:19:54.927Z,8.40
2022-08-07T03:20:52.427Z,8.37
2022-08-07T03:21:51.741Z,8.36
2022-08-07T03:22:51.704Z,8.37
2022-08-07T03:24:19.341Z,8.36
2022-08-07T03:24:52.684Z,8.37
2022-08-07T03:25:58.522Z,8.36
2022-08-07T03:26:59.032Z,8.34
2022-08-07T03:28:09.092Z,8.34
2022-08-07T03:28:52.645Z,8.30
2022-08-07T03:29:51.654Z,8.33
2022-08-07T03:30:51.626Z,8.33
2022-08-07T03:31:51.646Z,8.30
2022-08-07T03:32:58.708Z,8.30
2022-08-07T03:33:52.634Z,8.30
2022-08-07T03:35:17.032Z,8.29
2022-08-07T03:35:52.575Z,8.28
2022-08-07T03:36:51.558Z,8.26
2022-08-07T03:37:53.311Z,8.28
2022-08-07T03:38:51.540Z,8.23
2022-08-07T03:40:13.230Z,8.25
2022-08-07T03:40:57.180Z,8.25
2022-08-07T03:41:53.202Z,8.25
2022-08-07T03:42:51.497Z,8.25
2022-08-07T03:43:57.411Z,8.25
2022-08-07T03:44:53.402Z,8.23
2022-08-07T03:45:52.454Z,8.25
2022-08-07T03:47:13.187Z,8.23
2022-08-07T03:47:52.451Z,8.22
2022-08-07T03:49:02.584Z,8.20
2022-08-07T03:49:53.635Z,8.20
2022-08-07T03:50:55.686Z,8.20
2022-08-07T03:52:01.040Z,8.19
2022-08-07T03:52:52.394Z,8.19
2022-08-07T03:54:33.432Z,8.16
2022-08-07T03:54:54.617Z,8.15
2022-08-07T03:55:57.548Z,8.15
2022-08-07T03:57:03.739Z,8.16
2022-08-07T03:58:34.297Z,8.16
2022-08-07T03:59:09.636Z,8.15
2022-08-07T04:00:01.353Z,8.12
2022-08-07T04:00:54.883Z,8.10
2022-08-07T04:01:52.280Z,8.10
2022-08-07T04:02:51.273Z,8.10
2022-08-07T04:03:55.234Z,8.10
2022-08-07T04:04:51.254Z,8.10
2022-08-07T04:05:51.235Z,8.11
2022-08-07T04:06:52.245Z,8.11
2022-08-07T04:07:52.043Z,8.12
2022-08-07T04:08:51.214Z,8.15
2022-08-07T04:09:51.197Z,8.11
2022-08-07T04:10:54.390Z,8.10
2022-08-07T04:12:27.339Z,8.08
2022-08-07T04:12:52.253Z,8.08
2022-08-07T04:14:10.627Z,8.07
2022-08-07T04:14:52.140Z,8.08
2022-08-07T04:15:51.126Z,8.08
2022-08-07T04:16:58.728Z,8.08
2022-08-07T04:18:56.632Z,8.08
2022-08-07T04:18:59.410Z,8.10
2022-08-07T04:19:54.920Z,8.11
2022-08-07T04:20:54.697Z,8.10
2022-08-07T04:22:05.348Z,8.10
2022-08-07T04:22:53.519Z,8.11
2022-08-07T04:24:05.677Z,8.08
2022-08-07T04:24:52.029Z,8.08
2022-08-07T04:25:51.012Z,8.08
2022-08-07T04:26:51.002Z,8.08
2022-08-07T04:28:00.322Z,8.10
2022-08-07T04:28:51.989Z,8.10
2022-08-07T04:29:58.591Z,8.10
2022-08-07T04:30:56.967Z,8.08
2022-08-07T04:32:09.862Z,8.08
2022-08-07T04:32:57.829Z,8.10
2022-08-07T04:33:54.974Z,8.10
2022-08-07T04:34:51.300Z,8.10
2022-08-07T04:35:51.234Z,8.12
2022-08-07T04:36:50.897Z,8.16
2022-08-07T04:38:03.552Z,8.16
2022-08-07T04:38:51.881Z,8.15
2022-08-07T04:39:51.883Z,8.15
2022-08-07T04:40:52.806Z,8.16
2022-08-07T04:41:51.830Z,8.16
2022-08-07T04:42:51.692Z,8.16
2022-08-07T04:44:10.392Z,8.19
2022-08-07T04:44:54.692Z,8.18
2022-08-07T04:46:01.075Z,8.18
2022-08-07T04:47:04.226Z,8.19
2022-08-07T04:48:01.714Z,8.20
2022-08-07T04:48:51.751Z,8.22
2022-08-07T04:50:04.263Z,8.23
2022-08-07T04:50:52.150Z,8.23
2022-08-07T04:51:51.541Z,8.22
2022-08-07T04:52:51.846Z,8.23
2022-08-07T04:54:05.035Z,8.23
2022-08-07T04:54:51.688Z,8.23
2022-08-07T04:58:12.971Z,8.26
2022-08-07T04:58:13.257Z,8.28
2022-08-07T04:58:24.304Z,8.25
2022-08-07T05:00:11.120Z,8.28
2022-08-07T05:00:51.859Z,8.30
2022-08-07T05:01:51.468Z,8.36
2022-08-07T05:02:50.911Z,8.37
2022-08-07T05:04:06.665Z,8.37
2022-08-07T05:04:51.579Z,8.41
2022-08-07T05:05:52.538Z,8.43
2022-08-07T05:06:53.125Z,8.44
2022-08-07T05:07:51.779Z,8.45
2022-08-07T05:09:01.390Z,8.50
2022-08-07T05:09:51.510Z,8.59
2022-08-07T05:10:50.509Z,8.66
2022-08-07T05:11:57.186Z,8.74
2022-08-07T05:12:53.849Z,8.80
2022-08-07T05:14:53.823Z,8.92
2022-08-07T05:14:59.063Z,9.04
2022-08-07T05:15:51.449Z,9.21
2022-08-07T05:16:53.049Z,9.39
2022-08-07T05:17:54.552Z,9.51
2022-08-07T05:18:50.444Z,9.69
2022-08-07T05:19:50.429Z,9.81
2022-08-07T05:20:51.181Z,9.96
2022-08-07T05:21:59.164Z,10.11
2022-08-07T05:22:51.387Z,10.25
2022-08-07T05:23:50.380Z,10.38
2022-08-07T05:24:50.519Z,10.48
2022-08-07T05:26:10.505Z,10.59
2022-08-07T05:26:51.345Z,10.67
2022-08-07T05:28:15.938Z,10.74
2022-08-07T05:28:51.306Z,10.84
2022-08-07T05:29:52.049Z,10.92
2022-08-07T05:30:50.298Z,11.02
2022-08-07T05:31:52.744Z,11.10
2022-08-07T05:32:50.269Z,11.19
2022-08-07T05:34:01.091Z,11.29
2022-08-07T05:34:51.265Z,11.39
2022-08-07T05:35:50.229Z,11.49
2022-08-07T05:36:52.787Z,11.61
2022-08-07T05:38:08.629Z,11.72
2022-08-07T05:39:00.461Z,11.83
2022-08-07T05:40:13.675Z,11.95
2022-08-07T05:40:52.028Z,12.07
2022-08-07T05:42:02.472Z,12.14
2022-08-07T05:42:55.846Z,12.24
2022-08-07T05:44:12.284Z,12.32
2022-08-07T05:45:04.532Z,12.45
2022-08-07T05:45:51.967Z,12.57
2022-08-07T05:46:51.176Z,12.65
2022-08-07T05:48:02.038Z,12.75
2022-08-07T05:48:58.032Z,12.86
2022-08-07T05:49:51.058Z,12.93
2022-08-07T05:50:50.583Z,13.04
2022-08-07T05:51:50.766Z,13.10
2022-08-07T05:52:50.052Z,13.19
2022-08-07T05:54:13.643Z,13.29
2022-08-07T05:54:55.493Z,13.42
2022-08-07T05:56:03.681Z,13.48
2022-08-07T05:56:51.686Z,13.57
2022-08-07T05:57:50.360Z,13.62
2022-08-07T05:58:52.946Z,13.70
2022-08-07T05:59:57.715Z,13.77
2022-08-07T06:00:51.688Z,13.79
2022-08-07T06:01:50.137Z,13.84
2022-08-07T06:02:50.590Z,13.88
2022-08-07T06:03:56.337Z,13.95
2022-08-07T06:04:50.928Z,14.03
2022-08-07T06:05:49.870Z,14.09
2022-08-07T06:06:56.334Z,14.15
2022-08-07T06:08:13.747Z,14.21
2022-08-07T06:08:51.585Z,14.25
2022-08-07T06:10:05.107Z,14.32
2022-08-07T06:10:52.069Z,14.37
2022-08-07T06:11:49.813Z,14.40
2022-08-07T06:12:49.847Z,14.46
2022-08-07T06:14:13.212Z,14.51
2022-08-07T06:14:50.788Z,14.55
2022-08-07T06:15:49.895Z,14.58
2022-08-07T06:16:50.300Z,14.62
2022-08-07T06:17:53.733Z,14.65
2022-08-07T06:18:51.896Z,14.70
2022-08-07T06:20:03.235Z,14.75
2022-08-07T06:22:14.545Z,14.78
2022-08-07T06:22:16.833Z,14.84
2022-08-07T06:23:02.430Z,14.89
2022-08-07T06:24:45.691Z,14.95
2022-08-07T06:24:55.652Z,14.99
2022-08-07T06:25:54.305Z,15.07
2022-08-07T06:26:49.688Z,15.13
2022-08-07T06:28:00.951Z,15.16
2022-08-07T06:28:50.654Z,15.19
2022-08-07T06:29:49.609Z,15.21
2022-08-07T06:30:50.791Z,15.25
2022-08-07T06:31:50.621Z,15.27
2022-08-07T06:32:49.571Z,15.31
2022-08-07T06:33:49.547Z,15.35
2022-08-07T06:34:49.558Z,15.38
2022-08-07T06:36:13.194Z,15.43
2022-08-07T06:36:52.344Z,15.46
2022-08-07T06:37:49.507Z,15.50
2022-08-07T06:38:59.415Z,15.56
2022-08-07T06:40:16.590Z,15.60
2022-08-07T06:40:51.346Z,15.67
2022-08-07T06:42:02.250Z,15.72
2022-08-07T06:42:50.490Z,15.80
2022-08-07T06:43:59.381Z,15.87
2022-08-07T06:44:51.237Z,15.90
2022-08-07T06:45:50.189Z,15.97
2022-08-07T06:46:53.191Z,16.04
2022-08-07T06:47:58.531Z,16.11
2022-08-07T06:48:50.438Z,16.14
2022-08-07T06:49:52.286Z,16.17
2022-08-07T06:50:50.369Z,16.24
2022-08-07T06:51:50.230Z,16.28
2022-08-07T06:52:52.916Z,16.33
2022-08-07T06:55:28.554Z,16.38
2022-08-07T06:55:34.451Z,16.42
2022-08-07T06:56:00.425Z,16.48
2022-08-07T06:56:51.187Z,16.53
2022-08-07T06:57:52.200Z,16.57
2022-08-07T07:00:12.817Z,16.63
2022-08-07T07:00:13.789Z,16.70
2022-08-07T07:00:52.822Z,16.81
2022-08-07T07:01:50.895Z,16.91
2022-08-07T07:02:57.375Z,17.01
2022-08-07T07:03:57.210Z,17.08
2022-08-07T07:04:55.075Z,17.19
2022-08-07T07:06:04.937Z,17.28
2022-08-07T07:07:00.189Z,17.40
2022-08-07T07:08:00.369Z,17.49
2022-08-07T07:08:50.199Z,17.58
2022-08-07T07:09:49.139Z,17.66
2022-08-07T07:10:54.866Z,17.74
2022-08-07T07:12:07.890Z,17.81
2022-08-07T07:12:53.524Z,17.92
2022-08-07T07:13:58.007Z,17.99
2022-08-07T07:14:50.103Z,18.08
2022-08-07T07:15:51.552Z,18.15
2022-08-07T07:16:51.209Z,18.21
2022-08-07T07:17:50.541Z,18.27
2022-08-07T07:18:49.048Z,18.36
2022-08-07T07:19:57.296Z,18.44
2022-08-07T07:20:50.175Z,18.47
2022-08-07T07:22:04.743Z,18.51
2022-08-07T07:24:06.162Z,18.58
2022-08-07T07:24:08.128Z,18.66
2022-08-07T07:24:56.683Z,18.78
2022-08-07T07:26:33.053Z,18.91
2022-08-07T07:26:52.367Z,18.99
2022-08-07T07:27:56.240Z,19.08
2022-08-07T07:29:38.609Z,19.13
2022-08-07T07:30:09.277Z,19.16
2022-08-07T07:30:50.731Z,19.19
2022-08-07T07:31:48.912Z,19.22
2022-08-07T07:32:48.901Z,19.28
2022-08-07T07:33:48.962Z,19.33
2022-08-07T07:34:49.881Z,19.37
2022-08-07T07:36:05.219Z,19.40
2022-08-07T07:36:53.948Z,19.43
2022-08-07T07:38:02.121Z,19.51
2022-08-07T07:38:49.830Z,19.59
2022-08-07T07:39:54.397Z,19.69
2022-08-07T07:40:50.540Z,19.77
2022-08-07T07:41:50.851Z,19.83
2022-08-07T07:42:53.804Z,19.87
2022-08-07T07:44:16.885Z,19.92
2022-08-07T07:44:49.880Z,19.99
2022-08-07T07:46:37.406Z,20.06
2022-08-07T07:46:55.315Z,20.14
2022-08-07T07:47:52.634Z,20.20
2022-08-07T07:48:48.990Z,20.26
2022-08-07T07:50:33.578Z,20.32
2022-08-07T07:50:49.681Z,20.36
2022-08-07T07:51:58.247Z,20.41
2022-08-07T07:52:49.708Z,20.43
2022-08-07T07:53:52.670Z,20.48
2022-08-07T07:54:51.462Z,20.54
2022-08-07T07:55:57.937Z,20.58
2022-08-07T07:56:49.713Z,20.61
2022-08-07T07:57:53.111Z,20.69
2022-08-07T07:58:50.611Z,20.74
2022-08-07T07:59:52.869Z,20.79
2022-08-07T08:00:53.793Z,20.85
2022-08-07T08:02:03.375Z,20.94
2022-08-07T08:03:04.781Z,20.98
2022-08-07T08:04:06.039Z,20.99
2022-08-07T08:04:50.511Z,21.04
2022-08-07T08:05:54.870Z,21.12
2022-08-07T08:06:52.004Z,21.16
2022-08-07T08:07:59.631Z,21.24
2022-08-07T08:08:49.911Z,21.38
2022-08-07T08:09:52.032Z,21.53
2022-08-07T08:10:49.442Z,21.61
2022-08-07T08:12:02.715Z,21.68
2022-08-07T08:12:58.989Z,21.75
2022-08-07T08:13:53.802Z,21.84
2022-08-07T08:14:49.541Z,21.84
2022-08-07T08:15:58.641Z,21.88
2022-08-07T08:16:50.739Z,21.84
2022-08-07T08:17:48.381Z,21.83
2022-08-07T08:18:50.549Z,21.84
2022-08-07T08:20:16.943Z,21.69
2022-08-07T08:20:49.367Z,21.64
2022-08-07T08:21:56.943Z,21.67
2022-08-07T08:22:55.713Z,21.71
2022-08-07T08:23:49.324Z,21.77
2022-08-07T08:24:57.299Z,21.83
2022-08-07T08:25:49.827Z,21.94
2022-08-07T08:26:50.602Z,22.05
2022-08-07T08:27:56.467Z,22.15
2022-08-07T08:28:49.244Z,22.25
2022-08-07T08:29:55.470Z,22.37
2022-08-07T08:30:51.172Z,22.46
2022-08-07T08:32:17.386Z,22.45
2022-08-07T08:32:49.954Z,22.51
2022-08-07T08:33:49.472Z,22.49
2022-08-07T08:34:48.174Z,22.43
2022-08-07T08:35:50.047Z,22.22
2022-08-07T08:36:48.143Z,22.33
2022-08-07T08:38:00.842Z,22.46
2022-08-07T08:38:49.126Z,22.58
2022-08-07T08:39:58.254Z,22.62
2022-08-07T08:40:49.105Z,22.73
2022-08-07T08:41:57.804Z,22.83
2022-08-07T08:42:51.674Z,22.90
2022-08-07T08:43:58.990Z,22.92
2022-08-07T08:44:49.102Z,22.92
2022-08-07T08:45:59.271Z,22.92
2022-08-07T08:46:49.215Z,22.92
2022-08-07T08:47:54.845Z,22.90
2022-08-07T08:48:51.000Z,22.90
2022-08-07T08:50:04.956Z,22.95
2022-08-07T08:50:48.987Z,23.05
2022-08-07T08:52:12.971Z,23.15
2022-08-07T08:52:53.789Z,23.12
2022-08-07T08:53:48.965Z,23.02
2022-08-07T08:54:47.946Z,23.12
2022-08-07T08:55:55.606Z,23.19
2022-08-07T08:56:48.916Z,23.28
2022-08-07T08:57:47.915Z,23.39
2022-08-07T08:58:50.701Z,23.50
2022-08-07T08:59:50.327Z,23.66
2022-08-07T09:00:48.588Z,23.84
2022-08-07T09:01:49.562Z,23.88
2022-08-07T09:02:52.257Z,24.02
2022-08-07T09:03:52.642Z,24.10
2022-08-07T09:04:48.835Z,24.16
2022-08-07T09:05:47.837Z,24.16
2022-08-07T09:06:48.220Z,24.10
2022-08-07T09:07:58.180Z,24.06
2022-08-07T09:08:48.787Z,24.06
2022-08-07T09:09:47.785Z,24.06
2022-08-07T09:10:48.056Z,24.08
2022-08-07T09:11:53.578Z,24.12
2022-08-07T09:12:53.012Z,24.10
2022-08-07T09:13:49.325Z,24.24
2022-08-07T09:14:50.870Z,24.21
2022-08-07T09:16:23.338Z,24.18
2022-08-07T09:16:48.697Z,24.18
2022-08-07T09:17:58.940Z,24.15
2022-08-07T09:18:53.338Z,24.08
2022-08-07T09:19:53.079Z,24.06
2022-08-07T09:20:58.398Z,24.09
2022-08-07T09:22:09.554Z,24.16
2022-08-07T09:24:32.306Z,24.30
2022-08-07T09:24:34.081Z,24.21
2022-08-07T09:24:59.072Z,24.37
2022-08-07T09:25:54.273Z,24.47
2022-08-07T09:26:50.925Z,24.47
2022-08-07T09:28:00.331Z,24.24
2022-08-07T09:30:01.600Z,24.24
2022-08-07T09:30:06.562Z,24.31
2022-08-07T09:30:52.872Z,24.40
2022-08-07T09:31:49.466Z,24.47
2022-08-07T09:32:47.529Z,24.50
2022-08-07T09:33:57.538Z,24.47
2022-08-07T09:34:53.941Z,24.45
2022-08-07T09:36:02.675Z,24.47
2022-08-07T09:36:49.644Z,24.47
2022-08-07T09:37:48.335Z,24.47
2022-08-07T09:38:49.937Z,24.53
2022-08-07T09:39:54.983Z,24.61
2022-08-07T09:40:50.175Z,24.83
2022-08-07T09:41:59.055Z,24.96
2022-08-07T09:42:50.420Z,25.05
2022-08-07T09:44:05.473Z,25.09
2022-08-07T09:47:50.786Z,25.14
2022-08-07T09:47:50.787Z,25.13
2022-08-07T09:47:51.540Z,25.14
2022-08-07T09:47:57.800Z,25.23
2022-08-07T09:50:02.149Z,25.32
2022-08-07T09:50:02.234Z,25.32
2022-08-07T09:50:48.337Z,25.51
2022-08-07T09:52:09.893Z,25.46
2022-08-07T09:52:48.603Z,25.40
2022-08-07T09:53:55.096Z,25.25
2022-08-07T09:54:48.271Z,25.23
2022-08-07T09:56:02.875Z,25.13
2022-08-07T09:56:48.254Z,25.03
2022-08-07T09:57:47.452Z,25.00
2022-08-07T09:58:48.784Z,25.05
2022-08-07T10:00:00.718Z,25.23
2022-08-07T10:00:48.211Z,25.38
2022-08-07T10:01:51.064Z,25.47
2022-08-07T10:02:55.866Z,25.24
2022-08-07T10:04:05.215Z,24.88
2022-08-07T10:04:53.219Z,24.84
2022-08-07T10:05:58.986Z,24.85
2022-08-07T10:06:49.151Z,24.95
2022-08-07T10:07:52.531Z,25.02
2022-08-07T10:08:49.618Z,25.10
2022-08-07T10:10:00.620Z,25.17
2022-08-07T10:11:16.974Z,24.95
2022-08-07T10:12:02.248Z,24.85
2022-08-07T10:12:52.927Z,24.80
2022-08-07T10:14:01.315Z,24.84
2022-08-07T10:14:55.073Z,24.99
2022-08-07T10:15:48.063Z,25.00
2022-08-07T10:16:47.443Z,25.05
2022-08-07T10:17:47.199Z,25.30
2022-08-07T10:18:47.994Z,25.51
2022-08-07T10:19:47.003Z,25.62
2022-08-07T10:20:46.989Z,25.82
2022-08-07T10:22:12.649Z,25.94
2022-08-07T10:22:51.064Z,25.97
2022-08-07T10:24:05.582Z,25.95
2022-08-07T10:24:48.885Z,25.97
2022-08-07T10:25:47.004Z,25.73
2022-08-07T10:26:52.955Z,25.77
2022-08-07T10:27:51.461Z,25.52
2022-08-07T10:28:49.602Z,25.43
2022-08-07T10:29:52.013Z,25.45
2022-08-07T10:30:47.874Z,25.43
2022-08-07T10:31:47.433Z,25.35
2022-08-07T10:32:53.153Z,25.39
2022-08-07T10:34:06.351Z,25.43
2022-08-07T10:34:47.820Z,25.33
2022-08-07T10:35:55.613Z,25.30
2022-08-07T10:36:47.818Z,25.46
2022-08-07T10:38:00.737Z,25.65
2022-08-07T10:38:49.008Z,25.95
2022-08-07T10:40:03.059Z,26.09
2022-08-07T10:40:47.747Z,26.25
2022-08-07T10:41:56.784Z,26.23
2022-08-07T10:42:47.725Z,26.36
2022-08-07T10:43:46.739Z,26.37
2022-08-07T10:44:46.796Z,26.37
2022-08-07T10:45:58.058Z,26.43
2022-08-07T10:46:47.699Z,26.47
2022-08-07T10:47:53.105Z,26.48
2022-08-07T10:48:47.688Z,26.50
2022-08-07T10:49:50.941Z,26.47
2022-08-07T10:50:50.287Z,26.52
2022-08-07T10:52:02.081Z,26.52
2022-08-07T10:52:48.617Z,26.67
2022-08-07T10:53:46.634Z,26.88
2022-08-07T10:54:53.169Z,26.94
2022-08-07T10:55:47.618Z,27.03
2022-08-07T10:56:46.907Z,27.06
2022-08-07T10:57:46.585Z,27.00
2022-08-07T10:58:47.603Z,26.99
2022-08-07T10:59:47.414Z,27.12
2022-08-07T11:00:50.234Z,27.18
2022-08-07T11:01:52.098Z,27.29
2022-08-07T11:02:49.132Z,27.43
2022-08-07T11:03:52.793Z,27.24
2022-08-07T11:04:47.515Z,27.12
2022-08-07T11:05:50.891Z,27.02
2022-08-07T11:06:46.478Z,27.03
2022-08-07T11:07:58.416Z,27.04
2022-08-07T11:08:47.444Z,27.04
2022-08-07T11:10:07.948Z,27.04
2022-08-07T11:10:55.442Z,26.99
2022-08-07T11:11:48.248Z,26.99
2022-08-07T11:12:49.028Z,26.97
2022-08-07T11:14:46.520Z,27.09
2022-08-07T11:14:59.735Z,26.77
2022-08-07T11:15:54.432Z,26.70
2022-08-07T11:16:51.351Z,26.70
2022-08-07T11:17:47.774Z,26.85
2022-08-07T11:18:50.753Z,26.97
2022-08-07T11:19:46.443Z,27.07
2022-08-07T11:20:46.300Z,27.18
2022-08-07T11:21:46.313Z,27.41
2022-08-07T11:22:46.601Z,27.62
2022-08-07T11:23:46.300Z,27.79
2022-08-07T11:24:46.270Z,27.92
2022-08-07T11:25:49.882Z,27.88
2022-08-07T11:26:50.148Z,27.79
2022-08-07T11:28:02.855Z,27.69
2022-08-07T11:28:53.471Z,27.69
2022-08-07T11:29:47.457Z,27.81
2022-08-07T11:30:46.242Z,27.92
2022-08-07T11:31:46.202Z,27.97
2022-08-07T11:32:46.283Z,28.00
2022-08-07T11:33:54.289Z,28.03
2022-08-07T11:34:47.287Z,28.14
2022-08-07T11:35:58.881Z,28.24
2022-08-07T11:36:49.526Z,28.46
2022-08-07T11:38:10.300Z,28.54
2022-08-07T11:38:50.402Z,28.51
2022-08-07T11:40:01.108Z,28.37
2022-08-07T11:40:49.610Z,28.21
2022-08-07T11:42:02.192Z,28.37
2022-08-07T11:42:47.392Z,28.74
2022-08-07T11:44:10.830Z,29.09
2022-08-07T11:44:52.442Z,29.21
2022-08-07T11:45:50.019Z,29.51
2022-08-07T11:46:48.696Z,29.67
2022-08-07T11:47:55.940Z,29.55
2022-08-07T11:49:04.376Z,29.19
2022-08-07T11:50:11.305Z,28.96
2022-08-07T11:50:57.480Z,28.52
2022-08-07T11:51:47.047Z,28.15
2022-08-07T11:52:46.823Z,27.94
2022-08-07T11:54:01.166Z,27.99
2022-08-07T11:54:54.773Z,27.87
2022-08-07T11:56:09.663Z,27.70
2022-08-07T11:56:52.326Z,27.81
2022-08-07T11:57:59.757Z,27.78
2022-08-07T11:58:49.729Z,27.84
2022-08-07T12:00:10.493Z,27.90
2022-08-07T12:00:53.689Z,28.04
2022-08-07T12:01:59.818Z,28.19
2022-08-07T12:02:52.617Z,28.31
2022-08-07T12:03:46.921Z,28.33
2022-08-07T12:04:45.908Z,28.39
2022-08-07T12:05:48.826Z,28.18
2022-08-07T12:06:57.292Z,28.18
2022-08-07T12:07:53.558Z,28.21
2022-08-07T12:08:46.825Z,28.31
2022-08-07T12:09:46.165Z,28.37
2022-08-07T12:10:45.767Z,28.46
2022-08-07T12:12:09.220Z,28.48
2022-08-07T12:12:47.257Z,28.46
2022-08-07T12:13:47.822Z,28.46
2022-08-07T12:14:56.496Z,28.54
2022-08-07T12:16:06.167Z,28.55
2022-08-07T12:16:46.775Z,28.55
2022-08-07T12:17:59.629Z,28.58
2022-08-07T12:18:46.737Z,28.74
2022-08-07T12:19:56.896Z,28.80
2022-08-07T12:20:49.374Z,28.78
2022-08-07T12:22:37.143Z,28.73
2022-08-07T12:22:58.322Z,28.67
2022-08-07T12:24:07.674Z,28.67
2022-08-07T12:24:52.431Z,28.03
2022-08-07T12:26:03.107Z,27.32
2022-08-07T12:26:49.298Z,27.13
2022-08-07T12:28:09.001Z,27.12
2022-08-07T12:28:49.714Z,27.22
2022-08-07T12:29:46.558Z,27.41
2022-08-07T12:30:53.159Z,27.70
2022-08-07T12:31:52.771Z,27.90
2022-08-07T12:32:48.206Z,28.04
2022-08-07T12:33:56.228Z,28.19
2022-08-07T12:34:49.641Z,28.40
2022-08-07T12:35:48.185Z,28.54
2022-08-07T12:36:50.198Z,28.55
2022-08-07T12:38:11.661Z,28.59
2022-08-07T12:38:57.065Z,28.66
2022-08-07T12:39:50.730Z,28.73
2022-08-07T12:40:48.576Z,28.92
2022-08-07T12:41:51.400Z,29.09
2022-08-07T12:42:55.145Z,29.09
2022-08-07T12:44:01.381Z,28.83
2022-08-07T12:44:47.166Z,28.73
2022-08-07T12:45:45.381Z,28.62
2022-08-07T12:46:46.384Z,28.51
2022-08-07T12:47:45.351Z,28.46
2022-08-07T12:48:52.264Z,28.39
2022-08-07T12:49:51.134Z,28.31
2022-08-07T12:50:49.051Z,28.31
2022-08-07T12:51:51.251Z,28.33
2022-08-07T12:52:46.660Z,28.33
2022-08-07T12:54:03.133Z,28.34
2022-08-07T12:54:54.717Z,28.33
2022-08-07T12:56:01.977Z,28.36
2022-08-07T12:56:51.292Z,28.43
2022-08-07T12:58:01.279Z,28.49
2022-08-07T12:58:46.912Z,28.55
2022-08-07T12:59:54.798Z,28.62
2022-08-07T13:00:50.073Z,28.73
2022-08-07T13:01:45.272Z,28.76
2022-08-07T13:02:49.324Z,28.80